Carson Valley, Nevada Weather observations

Data are for 10 minute period ending at time listed.
 Day   Time   Solar   Ave.   Ave.  Ave.  Vector  Max.   Baro.   Total    
  of    of     Rad.   Air    Rel.  Wind   Wind   Wind  Press.  Precip.   
Year   Day            Temp.  Hum.  Speed  Dir.   Gust                    
2017   (PST)  Kw/m2    F      %     mph   deg.    mph    mb.     in.     
-------------------------------------------------------------------------
  35   21:00   0.00   35.5    73    3.9    29     4.5   856.0    0.00 
  35   21:10   0.00   35.3    73    3.5    61     5.0   856.0    0.00 
  35   21:20   0.00   34.3    76    4.7    66     5.6   855.9    0.00 
  35   21:30   0.00   33.7    78    2.9    26     4.8   856.2    0.00 
  35   21:40   0.00   33.7    80    3.3   318     6.2   856.4    0.00 
  35   21:50   0.00   35.1    74    2.9   358     7.4   856.5    0.00 
  35   22:00   0.00   35.8    71    3.4    16     6.5   856.4    0.00 
  35   22:10   0.00   34.3    76    4.2    36     6.6   856.6    0.00 
  35   22:20   0.00   33.9    76    5.3    43     6.7   856.7    0.00 
  35   22:30   0.00   40.9    53    3.0   212     7.4   856.6    0.00 
  35   22:40   0.00   37.8    64    4.8    76     8.2   856.6    0.00 
  35   22:50   0.00   35.6    69    3.2    57     4.5   856.5    0.00 
  35   23:00   0.00   34.3    74    4.6    42     6.0   856.4    0.00 
  35   23:10   0.00   33.0    78    3.3   130     6.6   856.5    0.00 
  35   23:20   0.00   33.6    77    3.8   173     5.8   856.5    0.00 
  35   23:30   0.00   32.4    80    3.8   132     5.2   856.6    0.00 
  35   23:40   0.00   31.9    81    5.0    93     6.1   856.5    0.00 
  35   23:50   0.00   33.1    78    5.3   106     7.2   856.4    0.00 
  36    0:00   0.00   34.4    72    4.3   102     6.9   856.4    0.00 
  36    0:10   0.00   32.9    77    1.2   329     2.3   856.4    0.00 
  36    0:20   0.00   32.8    79    2.5    25     4.4   856.3    0.00 
  36    0:30   0.00   31.8    81    3.5    48     4.8   856.1    0.00 
  36    0:40   0.00   31.7    81    1.7    87     3.1   856.0    0.00 
  36    0:50   0.00   30.3    83    1.8   335     4.2   856.0    0.00 
  36    1:00   0.00   30.9    85    2.1   295     3.5   856.0    0.00 
  36    1:10   0.00   32.1    80    1.0   257     3.2   855.9    0.00 
  36    1:20   0.00   32.1    79    0.8   254     3.3   855.9    0.00 
  36    1:30   0.00   29.5    82    1.6    22     3.4   855.8    0.00 
  36    1:40   0.00   29.0    86    0.8    84     3.9   855.8    0.00 
  36    1:50   0.00   28.4    87    2.9    84     3.6   855.8    0.00 
  36    2:00   0.00   28.1    88    1.5    49     3.1   855.8    0.00 
  36    2:10   0.00   28.3    89    0.3   274     1.2   855.7    0.00 
  36    2:20   0.00   28.3    90    1.8   145     3.1   855.7    0.00 
  36    2:30   0.00   28.6    90    2.7   152     4.7   855.7    0.00 
  36    2:40   0.00   28.6    90    2.9   133     3.7   855.7    0.00 
  36    2:50   0.00   28.3    90    2.1   130     2.8   855.6    0.00 
  36    3:00   0.00   28.5    90    1.6   173     2.7   855.6    0.00 
  36    3:10   0.00   28.5    90    1.4   233     2.9   855.5    0.00 
  36    3:20   0.00   29.0    90    1.5   220     3.1   855.4    0.00 
  36    3:30   0.00   28.5    89    1.4   153     3.5   855.2    0.00 
  36    3:40   0.00   27.9    91    1.7   220     3.1   855.3    0.00 
  36    3:50   0.00   27.7    91    2.3   142     5.0   855.2    0.00 
  36    4:00   0.00   28.5    92    2.2   177     3.5   855.1    0.00 
  36    4:10   0.00   28.9    91    2.4   153     3.4   855.1    0.00 
  36    4:20   0.00   28.4    90    1.9    97     3.9   855.0    0.00 
  36    4:30   0.00   28.3    91    1.8   108     3.7   854.8    0.00 
  36    4:40   0.00   28.3    91    1.3   224     4.5   854.8    0.00 
  36    4:50   0.00   28.4    92    3.1   334     4.5   854.8    0.00 
  36    5:00   0.00   28.7    92    2.4    34     3.9   854.7    0.00 
  36    5:10   0.00   28.3    92    4.4    53     6.1   854.6    0.00 
  36    5:20   0.00   28.3    92    2.8    68     5.0   854.6    0.00 
  36    5:30   0.00   28.1    91    1.6    99     4.2   854.6    0.00 
  36    5:40   0.00   28.2    92    2.1   294     5.3   854.6    0.00 
  36    5:50   0.00   28.3    92    2.3   307     5.2   854.5    0.00 
  36    6:00   0.00   28.1    91    1.2   332     3.1   854.4    0.00 
  36    6:10   0.00   26.7    91    2.3   114     4.2   854.4    0.00 
  36    6:20   0.00   26.4    92    2.5    86     4.1   854.3    0.00 
  36    6:30   0.00   26.7    92    2.0    89     4.3   854.3    0.00 
  36    6:40   0.00   27.2    92    1.2   192     3.7   854.2    0.00 
  36    6:50   0.00   27.4    92    2.6   296     7.1   854.3    0.00 
  36    7:00   0.00   27.7    92    1.8   346     3.4   854.3    0.00 
  36    7:10   0.00   27.4    92    0.9    39     2.9   854.3    0.00 
  36    7:20   0.01   27.1    92    2.1   156     3.6   854.3    0.00 
  36    7:30   0.03   27.8    92    1.9   226     3.1   854.2    0.00 
  36    7:40   0.09   28.6    92    1.7   148     3.9   854.1    0.00 
  36    7:50   0.11   30.2    91    0.6    20     2.7   854.1    0.00 
  36    8:00   0.12   31.1    89    0.9    11     3.0   854.1    0.00 
  36    8:10   0.16   31.0    87    2.0   322     3.5   854.2    0.00 
  36    8:20   0.16   31.2    87    2.3   339     5.0   853.9    0.00 
  36    8:30   0.21   31.8    88    1.7   272     4.2   854.1    0.00 
  36    8:40   0.27   33.7    83    2.1    87     5.6   854.0    0.00 
  36    8:50   0.33   34.4    81    3.2    60     6.1   853.8    0.00 
  36    9:00   0.30   34.8    78    1.8   354     3.6   853.8    0.00 
  36    9:10   0.30   35.2    78    3.1    95     6.6   853.7    0.00 
  36    9:20   0.30   35.4    77    2.0   351     4.1   853.7    0.00 
  36    9:30   0.32   36.6    75    1.3    29     4.8   853.6    0.00 
  36    9:40   0.24   36.3    76    4.2   157     7.5   853.5    0.00 
  36    9:50   0.24   35.7    79    3.9   202     7.3   853.6    0.00 
  36   10:00   0.20   36.3    75    3.3   109     8.3   853.5    0.00 
  36   10:10   0.17   36.7    75    3.7   348     8.8   853.4    0.00 
  36   10:20   0.15   37.5    77    2.6   216     6.5   853.4    0.00 
  36   10:30   0.14   38.7    73    4.4   171    11.5   853.3    0.00 
  36   10:40   0.15   43.0    58    4.6   159     8.5   853.2    0.00 
  36   10:50   0.15   46.2    50   11.8   148    21.7   853.1    0.00 
  36   11:00   0.14   47.4    48   12.3   137    17.8   853.0    0.00 
  36   11:10   0.16   46.8    50   14.5   132    21.0   852.7    0.00 
  36   11:20   0.16   46.8    50   12.8   119    18.8   852.5    0.00 
  36   11:30   0.14   46.8    51   16.9   118    24.2   852.1    0.00 
  36   11:40   0.12   46.4    52   17.4   109    24.4   851.8    0.00 
  36   11:50   0.12   46.9    51   17.3   106    24.6   851.5    0.00 
  36   12:00   0.41   47.6    51   16.3   119    26.7   851.1    0.00 
  36   12:10   0.67   49.5    48   18.5   115    26.5   850.6    0.00 
  36   12:20   0.61   51.2    45   21.0   123    29.9   850.2    0.00 
  36   12:30   0.65   51.5    45   20.8   124    33.8   849.6    0.00 
  36   12:40   0.65   51.8    46   22.1   123    31.0   849.2    0.00 
  36   12:50   0.65   51.9    45   22.6   126    33.2   849.0    0.00 
  36   13:00   0.56   52.4    45   20.2   133    31.0   848.7    0.00 
  36   13:10   0.60   52.9    44   20.2   133    28.4   848.4    0.00 
  36   13:20   0.62   53.5    44   18.0   137    31.4   848.4    0.00 
  36   13:30   0.53   53.8    42   17.4   136    27.5   848.1    0.00 
  36   13:40   0.53   54.0    40   19.9   140    27.7   847.8    0.00 
  36   13:50   0.64   55.0    39   22.5   144    31.9   847.4    0.00 
  36   14:00   0.55   55.0    39   21.2   150    32.2   847.2    0.00 
  36   14:10   0.39   54.1    39   21.0   147    30.2   847.1    0.00 
  36   14:20   0.42   54.1    40   20.1   150    29.6   847.0    0.00 
  36   14:30   0.35   53.4    41   20.3   153    27.4   847.1    0.00 
  36   14:40   0.55   54.2    39   19.7   148    29.8   846.9    0.00 
  36   14:50   0.52   54.4    40   19.5   140    28.0   846.9    0.00 
  36   15:00   0.49   54.7    38   17.8   148    29.6   846.8    0.00 
  36   15:10   0.42   54.2    38   20.6   139    28.4   846.6    0.00 
  36   15:20   0.42   54.2    38   19.5   132    28.2   846.4    0.00 
  36   15:30   0.35   53.9    38   18.7   141    27.6   846.4    0.00 
  36   15:40   0.32   54.2    35   15.3   148    20.8   846.5    0.00 
  36   15:50   0.30   54.2    35   13.1   160    29.2   846.4    0.00 
  36   16:00   0.25   54.0    34   12.0   182    19.4   846.4    0.00 
  36   16:10   0.21   53.2    32   17.6   163    27.1   846.0    0.00 
  36   16:20   0.16   52.2    32   19.5   160    28.5   845.8    0.00 
  36   16:30   0.08   51.0    34   16.0   166    24.2   845.8    0.00 
  36   16:40   0.05   49.5    36   14.2   180    24.8   845.9    0.00 
  36   16:50   0.03   50.1    30    5.0   218    12.1   846.2    0.00 
  36   17:00   0.02   49.6    29    8.5   196    18.1   846.2    0.00 
  36   17:10   0.01   49.0    28    5.6   171    15.8   846.2    0.00 
  36   17:20   0.01   49.2    25    6.8   186    20.4   846.2    0.00 
  36   17:30   0.00   48.7    25    6.1   118    21.3   846.2    0.00 
  36   17:40   0.00   48.3    26    5.0   174    14.5   846.1    0.00 
  36   17:50   0.00   46.3    29    9.6   109    22.4   845.8    0.00 
  36   18:00   0.00   45.4    35   17.1   115    24.3   845.3    0.00 
  36   18:10   0.00   45.2    35   18.0   117    30.7   845.0    0.00 
  36   18:20   0.00   44.7    37   22.5   109    30.9   844.5    0.00 
  36   18:30   0.00   44.9    35   18.0   116    29.4   844.4    0.00 
  36   18:40   0.00   46.2    32    7.9   133    16.3   844.5    0.00 
  36   18:50   0.00   47.0    30   11.3   136    23.2   844.3    0.00 
  36   19:00   0.00   47.7    31   11.2   223    29.6   844.4    0.00 
  36   19:10   0.00   47.8    35   15.4   246    36.0   844.2    0.00 
  36   19:20   0.00   47.1    41   22.4   247    35.4   844.7    0.00 
  36   19:30   0.00   43.9    57   24.1   226    39.8   845.6    0.00 
  36   19:40   0.00   40.2    69   20.1   210    38.7   845.8    0.00 
  36   19:50   0.00   39.6    69   12.4   168    24.2   845.6    0.00 
  36   20:00   0.00   38.0    75   16.5   132    31.2   845.3    0.00 
  36   20:10   0.00   39.2    70   11.8   154    26.1   845.5    0.00 
  36   20:20   0.00   40.3    68   17.5   166    30.5   845.6    0.00 
  36   20:30   0.00   38.9    72   21.0   162    29.7   845.3    0.00 
  36   20:40   0.00   38.1    76   17.1   152    29.4   845.7    0.00 
  36   20:50   0.00   38.3    78   19.1   155    32.2   845.6    0.01 

Return to Carson Valley graphs page.


Western Regional Climate Center,wrcc@dri.edu